Observations at @wa for Latest


KALW 081453Z 19007KT 10SM CLR 20/06 A3008 RMK AO2 SLP181 T02000056 51010=
KAWO 081456Z AUTO 31004KT 1 3/4SM -RA BR 14/13 A3019 RMK AO2 SLP227 P0003 60003
 T01390133 50004=
KBFI 081453Z 31003KT 2 1/2SM BR SCT008 OVC021 14/13 A3018 RMK AO2 SLP220
 T01440133 53014=
KBLI 081453Z 00000KT 10SM BKN007 OVC021 15/13 A3018 RMK AO2 SLP224 T01500133
 53010=
KCLM 081453Z AUTO 26005KT 10SM BKN048 15/13 A3019 RMK AO2 SLP222 T01500133
 52008=
KEAT 081455Z AUTO 30011KT 10SM OVC100 19/08 A3006 RMK AO2 SLP173 T01890083
 53011=
KELN 081453Z AUTO 31013KT 10SM CLR 17/09 A3009 RMK AO2 SLP182 T01720094 53008=
KEPH 081453Z AUTO 33012KT 10SM BKN085 OVC110 21/08 A3004 RMK AO2 SLP167 60000
 T02060078 51009=
KFHR 081453Z AUTO 00000KT 6SM BR SCT005 BKN010 OVC070 13/13 A3019 RMK AO2
 SLP222 T01330128 51009=
KFHR 081504Z AUTO 13003KT 5SM BR BKN005 OVC070 13/13 A3019 RMK AO2 T01330128=
KGEG 081453Z 19008KT 10SM FEW065 BKN080 16/03 A3008 RMK AO2 SLP175 T01560033
 51007=
KGRF 081458Z AUTO 16004KT 10SM OVC026 16/15 A3018 RMK AO2 SLP223 60000
 T01590154 52012=
KHQM 081453Z AUTO 00000KT 10SM CLR 15/13 A3020 RMK AO2 SLP228 T01500133 53012=
KKLS 081456Z AUTO 00000KT 10SM OVC034 17/13 A3019 RMK AO2 SLP227 T01670128
 51013=
KMWH 081452Z 00000KT 10SM BKN090 OVC110 22/09 A3005 RMK AO2 SLP171 T02170089
 53011=
KNOW 081450Z AUTO 30006KT 10SM BKN050 A3018 RMK AO2=
KNUW 081456Z 00000KT 10SM BKN008 BKN019 OVC055 14/13 A3022 RMK AO2 SLP232
 T01440128 53010=
KOLM 081454Z 23003KT 10SM OVC011 15/13 A3019 RMK AO2 SLP222 T01500128 53012=
KOMK 081453Z AUTO 32008KT 10SM OVC110 18/10 A3007 RMK AO2 SLP175 T01780100
 53011=
KORS 081455Z AUTO 18004KT 10SM OVC050 15/14 A3017 RMK AO2=
KPAE 081453Z 00000KT 1SM R16R/5500VP6000FT -RA BR OVC003 13/13 A3019 RMK AO2
 RAB21 SLP224 P0001 60001 T01330128 53012=
KPSC 081453Z 23003KT 10SM CLR 21/10 A3006 RMK AO2 SLP175 T02060100 51013=
KPUW 081453Z AUTO 09003KT 10SM CLR 17/06 A3013 RMK AO2 SLP193 T01670056 51012=
KPWT 081456Z AUTO 00000KT 4SM BR SCT004 SCT008 BKN021 13/13 A3019 RMK AO2 RAE48
 SLP227 P0000 60000 T01330133 51010=
KPWT 081511Z AUTO 00000KT 10SM FEW021 BKN032 14/13 A3019 RMK AO2=
KRNT 081453Z 00000KT 5SM HZ BKN014 OVC030 16/12 A3018 RMK AO2 SLP225 T01560122
 53014=
KRNT 081500Z 00000KT 4SM HZ OVC030 16/13 A3018 RMK AO2 T01610128=
KRNT 081508Z 00000KT 4SM HZ BKN014 OVC030 16/13 A3019 RMK AO2 T01560128=
KSEA 081453Z 30003KT 6SM BR FEW005 OVC020 14/13 A3019 RMK AO2 SLP227 T01440128
 53013=
KSEA 081508Z 31003KT 2SM BR FEW005 OVC018 14/13 A3019 RMK AO2 T01440133=
KSFF 081453Z 02003KT 10SM BKN080 OVC090 17/08 A3007 RMK AO2 SLP172 T01720078
 51007=
KSHN 081453Z AUTO 25005KT 10SM OVC008 14/13 A3016 RMK AO2 SLP214 T01440128
 52013=
KSKA 081458Z 17008KT 10SM OVC070 16/03 A3007 RMK AO2A SLP177 T01560031 50006 $=
KSMP 081456Z AUTO VRB04KT M1/4SM FG VV001 09/08 A3019 RMK AO2 SLP217 T00890078
 53008=
KTCM 081458Z AUTO 20005KT 10SM OVC023 16/11 A3019 RMK AO2 SLP226 T01580114
 52012 $=
KTIW 081453Z 00000KT 10SM OVC023 14/11 A3019 RMK AO2 SLP222 T01440111 53012=
KUIL 081453Z AUTO 00000KT 9SM FEW004 SCT008 OVC012 14/13 A3020 RMK AO2 SLP227
 T01390133 53013=
KVUO 081453Z AUTO 31003KT 2 1/2SM -RA FEW023 BKN030 OVC039 17/12 A3018 RMK AO2
 RAB51 SLP218 P0000 60000 T01670122 53014=
KVUO 081505Z AUTO 30007KT 3SM -RA FEW018 BKN030 OVC035 17/13 A3018 RMK AO2
 P0000 T01720128=
KYKM 081453Z 28003KT 10SM CLR 19/09 A3008 RMK AO2 SLP180 T01940094 53010=